createdAt,value
2019-01-26T00:01:02.675Z,28.57
2019-01-26T00:05:10.967Z,29.73
2019-01-26T00:09:19.247Z,30.00
2019-01-26T00:13:27.528Z,29.85
2019-01-26T00:17:35.805Z,32.20
2019-01-26T00:21:44.060Z,32.97
2019-01-26T00:25:52.361Z,30.10
2019-01-26T00:30:00.589Z,28.77
2019-01-26T00:34:08.860Z,31.87
2019-01-26T00:38:17.147Z,33.30
2019-01-26T00:42:25.393Z,29.75
2019-01-26T00:46:33.696Z,32.67
2019-01-26T00:50:41.917Z,30.43
2019-01-26T00:54:50.169Z,35.87
2019-01-26T00:58:58.492Z,33.87
2019-01-26T01:03:06.742Z,33.17
2019-01-26T01:07:15.012Z,33.43
2019-01-26T01:11:23.272Z,33.20
2019-01-26T01:15:31.551Z,34.20
2019-01-26T01:19:39.794Z,37.87
2019-01-26T01:23:48.054Z,37.90
2019-01-26T01:27:56.350Z,35.80
2019-01-26T01:32:04.608Z,37.27
2019-01-26T01:36:12.629Z,37.83
2019-01-26T01:40:20.899Z,36.63
2019-01-26T01:44:29.160Z,39.47
2019-01-26T01:48:37.422Z,37.33
2019-01-26T01:52:45.673Z,37.80
2019-01-26T01:56:53.949Z,38.90
2019-01-26T02:01:02.193Z,37.67
2019-01-26T02:05:10.459Z,39.90
2019-01-26T02:09:18.848Z,41.80
2019-01-26T02:13:27.084Z,39.10
2019-01-26T02:17:35.345Z,38.70
2019-01-26T02:21:43.568Z,40.90
2019-01-26T02:25:51.884Z,41.35
2019-01-26T02:30:00.221Z,41.37
2019-01-26T02:34:08.392Z,39.13
2019-01-26T02:38:16.649Z,40.50
2019-01-26T02:42:24.875Z,41.53
2019-01-26T02:46:33.114Z,39.00
2019-01-26T02:50:41.322Z,40.13
2019-01-26T02:54:49.543Z,42.80
2019-01-26T02:58:57.773Z,40.38
2019-01-26T03:03:05.996Z,44.00
2019-01-26T03:07:14.205Z,41.47
2019-01-26T03:11:22.449Z,41.13
2019-01-26T03:15:30.828Z,40.27
2019-01-26T03:19:39.049Z,39.90
2019-01-26T03:23:47.289Z,41.10
2019-01-26T03:27:55.533Z,41.35
2019-01-26T03:32:03.745Z,39.67
2019-01-26T03:36:11.961Z,42.40
2019-01-26T03:40:21.189Z,44.27
2019-01-26T03:44:29.424Z,42.43
2019-01-26T03:48:37.658Z,41.77
2019-01-26T03:52:45.871Z,41.30
2019-01-26T03:56:54.101Z,44.43
2019-01-26T04:01:02.384Z,40.20
2019-01-26T04:05:10.618Z,41.47
2019-01-26T04:09:18.837Z,38.90
2019-01-26T04:13:27.568Z,41.07
2019-01-26T04:17:35.797Z,38.17
2019-01-26T04:21:44.014Z,42.60
2019-01-26T04:25:52.235Z,43.10
2019-01-26T04:30:00.436Z,37.40
2019-01-26T04:34:08.704Z,41.47
2019-01-26T04:38:17.003Z,42.13
2019-01-26T04:42:25.249Z,37.80
2019-01-26T04:46:33.430Z,34.07
2019-01-26T04:50:42.558Z,41.83
2019-01-26T04:54:49.935Z,42.47
2019-01-26T04:58:58.158Z,39.47
2019-01-26T05:03:06.440Z,44.00
2019-01-26T05:07:14.654Z,41.83
2019-01-26T05:11:22.907Z,38.37
2019-01-26T05:15:31.169Z,43.27
2019-01-26T05:19:39.440Z,38.87
2019-01-26T05:23:47.691Z,40.63
2019-01-26T05:27:55.924Z,40.33
2019-01-26T05:32:04.210Z,44.60
2019-01-26T05:36:12.414Z,37.57
2019-01-26T05:40:20.650Z,40.03
2019-01-26T05:44:28.879Z,40.90
2019-01-26T05:48:37.114Z,41.20
2019-01-26T05:52:45.330Z,38.10
2019-01-26T05:56:53.589Z,40.93
2019-01-26T06:01:01.854Z,39.97
2019-01-26T06:05:10.091Z,39.40
2019-01-26T06:09:18.330Z,40.80
2019-01-26T06:13:26.574Z,38.33
2019-01-26T06:17:35.751Z,38.17
2019-01-26T06:21:43.965Z,38.87
2019-01-26T06:25:52.210Z,38.47
2019-01-26T06:30:00.476Z,41.30
2019-01-26T06:34:08.701Z,39.90
2019-01-26T06:38:16.984Z,40.85
2019-01-26T06:42:25.189Z,36.73
2019-01-26T06:46:34.943Z,36.80
2019-01-26T06:50:41.678Z,38.33
2019-01-26T06:54:49.910Z,26.97
2019-01-26T06:58:58.140Z,38.87
2019-01-26T07:03:06.361Z,35.47
2019-01-26T07:07:17.271Z,31.87
2019-01-26T07:11:25.548Z,40.40
2019-01-26T07:15:33.832Z,37.97
2019-01-26T07:19:42.120Z,23.25
2019-01-26T07:23:50.328Z,33.90
2019-01-26T07:27:58.577Z,35.50
2019-01-26T07:32:06.813Z,34.27
2019-01-26T07:36:15.111Z,30.87
2019-01-26T07:40:23.419Z,31.57
2019-01-26T07:44:31.680Z,33.63
2019-01-26T07:48:40.083Z,31.00
2019-01-26T07:52:48.325Z,28.93
2019-01-26T07:56:56.527Z,32.20
2019-01-26T08:01:04.820Z,30.20
2019-01-26T08:05:13.045Z,26.33
2019-01-26T08:09:21.297Z,30.43
2019-01-26T08:13:29.555Z,29.60
2019-01-26T08:17:37.817Z,30.87
2019-01-26T08:21:46.072Z,31.85
2019-01-26T08:25:54.379Z,31.40
2019-01-26T08:30:02.601Z,31.40
2019-01-26T08:34:10.866Z,30.57
2019-01-26T08:38:19.137Z,28.30
2019-01-26T08:42:27.096Z,32.80
2019-01-26T08:46:35.337Z,33.53
2019-01-26T08:50:43.581Z,32.30
2019-01-26T08:54:51.814Z,33.23
2019-01-26T08:59:00.036Z,30.70
2019-01-26T09:03:18.033Z,31.23
2019-01-26T09:07:26.246Z,32.23
2019-01-26T09:11:34.489Z,30.93
2019-01-26T09:15:42.741Z,31.40
2019-01-26T09:19:51.072Z,31.83
2019-01-26T09:23:59.314Z,30.10
2019-01-26T09:28:07.553Z,29.13
2019-01-26T09:32:15.780Z,30.63
2019-01-26T09:36:24.044Z,31.07
2019-01-26T09:40:32.329Z,30.03
2019-01-26T09:44:40.525Z,30.93
2019-01-26T09:48:48.761Z,30.50
2019-01-26T09:52:57.088Z,27.87
2019-01-26T09:57:05.504Z,29.53
2019-01-26T10:01:13.762Z,27.83
2019-01-26T10:05:22.001Z,26.20
2019-01-26T10:09:29.989Z,22.90
2019-01-26T10:13:38.224Z,26.50
2019-01-26T10:17:46.502Z,28.13
2019-01-26T10:21:54.772Z,24.53
2019-01-26T10:26:03.037Z,28.30
2019-01-26T10:30:15.308Z,25.13
2019-01-26T10:34:23.563Z,23.00
2019-01-26T10:38:31.850Z,25.30
2019-01-26T10:42:39.817Z,24.20
2019-01-26T10:46:48.100Z,22.30
2019-01-26T10:50:56.330Z,23.70
2019-01-26T10:55:05.449Z,22.90
2019-01-26T10:59:13.661Z,24.07
2019-01-26T11:03:21.893Z,22.37
2019-01-26T11:07:30.413Z,23.80
2019-01-26T11:11:38.429Z,21.93
2019-01-26T11:15:46.684Z,24.83
2019-01-26T11:19:55.021Z,32.38
2019-01-26T11:24:03.237Z,23.67
2019-01-26T11:28:11.441Z,23.57
2019-01-26T11:32:19.678Z,25.30
2019-01-26T11:36:27.896Z,25.37
2019-01-26T11:40:36.121Z,24.07
2019-01-26T11:44:48.569Z,23.20
2019-01-26T11:48:58.281Z,22.10
2019-01-26T11:53:06.543Z,21.93
2019-01-26T11:57:18.370Z,19.90
2019-01-26T12:01:34.722Z,20.40
2019-01-26T12:05:52.006Z,24.50
2019-01-26T12:10:00.242Z,22.83
2019-01-26T12:14:08.508Z,22.70
2019-01-26T12:18:16.797Z,20.27
2019-01-26T12:22:25.037Z,19.03
2019-01-26T12:26:33.252Z,20.50
2019-01-26T12:30:41.461Z,17.77
2019-01-26T12:34:49.687Z,17.30
2019-01-26T12:38:57.915Z,18.30
2019-01-26T12:43:06.147Z,16.57
2019-01-26T12:47:17.100Z,14.37
2019-01-26T12:51:22.596Z,15.10
2019-01-26T12:55:30.878Z,14.13
2019-01-26T12:59:39.100Z,15.20
2019-01-26T13:03:47.341Z,12.70
2019-01-26T13:07:55.586Z,12.97
2019-01-26T13:12:03.822Z,13.63
2019-01-26T13:16:13.669Z,12.07
2019-01-26T13:20:20.365Z,13.33
2019-01-26T13:24:28.610Z,14.50
2019-01-26T13:28:36.817Z,14.67
2019-01-26T13:32:46.542Z,13.10
2019-01-26T13:36:53.281Z,15.33
2019-01-26T13:41:01.509Z,16.13
2019-01-26T13:45:11.605Z,13.70
2019-01-26T13:49:19.822Z,14.03
2019-01-26T13:53:28.089Z,12.83
2019-01-26T13:57:36.334Z,12.73
2019-01-26T14:01:44.564Z,10.57
2019-01-26T14:05:52.769Z,10.57
2019-01-26T14:10:00.988Z,11.57
2019-01-26T14:14:09.196Z,10.10
2019-01-26T14:18:18.084Z,8.97
2019-01-26T14:22:26.338Z,8.23
2019-01-26T14:26:34.527Z,11.10
2019-01-26T14:30:46.645Z,10.70
2019-01-26T14:34:54.913Z,11.13
2019-01-26T14:39:03.194Z,11.00
2019-01-26T14:43:11.435Z,10.93
2019-01-26T14:47:19.669Z,11.67
2019-01-26T14:51:27.887Z,11.17
2019-01-26T14:55:36.093Z,10.83
2019-01-26T14:59:44.365Z,8.97
2019-01-26T15:03:52.611Z,9.83
2019-01-26T15:08:00.883Z,9.53
2019-01-26T15:12:09.133Z,10.13
2019-01-26T15:16:17.368Z,10.10
2019-01-26T15:20:28.190Z,10.10
2019-01-26T15:24:36.159Z,9.83
2019-01-26T15:28:44.412Z,9.30
2019-01-26T15:32:52.685Z,9.53
2019-01-26T15:37:00.944Z,9.70
2019-01-26T15:41:09.220Z,8.47
2019-01-26T15:45:21.072Z,8.70
2019-01-26T15:49:30.698Z,8.17
2019-01-26T15:53:38.914Z,8.97
2019-01-26T15:57:47.141Z,8.60
2019-01-26T16:01:55.382Z,9.83
2019-01-26T16:06:03.629Z,9.30
2019-01-26T16:10:13.386Z,10.17
2019-01-26T16:14:21.597Z,8.87
2019-01-26T16:18:29.888Z,10.63
2019-01-26T16:22:38.116Z,11.43
2019-01-26T16:26:46.344Z,9.27
2019-01-26T16:30:54.598Z,9.87
2019-01-26T16:35:02.810Z,10.10
2019-01-26T16:39:11.056Z,9.10
2019-01-26T16:43:19.306Z,9.23
2019-01-26T16:47:27.547Z,9.20
2019-01-26T16:51:35.818Z,9.40
2019-01-26T16:55:44.041Z,10.53
2019-01-26T16:59:52.300Z,10.05
2019-01-26T17:04:00.510Z,9.93
2019-01-26T17:08:09.302Z,10.10
2019-01-26T17:12:17.538Z,9.20
2019-01-26T17:16:25.737Z,9.33
2019-01-26T17:20:35.061Z,10.43
2019-01-26T17:24:42.296Z,9.33
2019-01-26T17:28:50.500Z,9.03
2019-01-26T17:32:58.697Z,9.60
2019-01-26T17:37:06.937Z,10.00
2019-01-26T17:41:15.183Z,11.10
2019-01-26T17:45:23.398Z,11.20
2019-01-26T17:49:31.637Z,11.90
2019-01-26T17:53:39.849Z,10.83
2019-01-26T17:57:48.067Z,10.27
2019-01-26T18:01:56.295Z,9.75
2019-01-26T18:06:04.546Z,9.67
2019-01-26T18:10:14.893Z,9.40
2019-01-26T18:14:23.121Z,9.17
2019-01-26T18:18:31.365Z,10.57
2019-01-26T18:22:39.672Z,9.50
2019-01-26T18:26:47.886Z,10.10
2019-01-26T18:30:56.093Z,9.37
2019-01-26T18:35:04.904Z,8.70
2019-01-26T18:39:13.117Z,9.30
2019-01-26T18:43:21.322Z,10.10
2019-01-26T18:47:29.545Z,9.57
2019-01-26T18:51:37.774Z,9.77
2019-01-26T18:55:45.988Z,10.70
2019-01-26T18:59:54.207Z,9.90
2019-01-26T19:04:10.902Z,9.07
2019-01-26T19:08:19.077Z,9.20
2019-01-26T19:12:27.308Z,9.93
2019-01-26T19:16:35.523Z,8.80
2019-01-26T19:20:44.522Z,8.70
2019-01-26T19:24:52.015Z,8.20
2019-01-26T19:29:00.221Z,8.07
2019-01-26T19:33:08.452Z,8.63
2019-01-26T19:37:16.685Z,8.30
2019-01-26T19:41:24.887Z,8.60
2019-01-26T19:45:33.073Z,8.60
2019-01-26T19:49:41.255Z,8.80
2019-01-26T19:53:49.498Z,8.63
2019-01-26T19:57:57.717Z,7.87
2019-01-26T20:02:05.950Z,7.43
2019-01-26T20:06:14.111Z,8.17
2019-01-26T20:10:22.347Z,8.43
2019-01-26T20:14:30.564Z,7.30
2019-01-26T20:18:38.761Z,7.70
2019-01-26T20:22:46.981Z,8.90
2019-01-26T20:26:55.214Z,7.10
2019-01-26T20:31:03.400Z,7.70
2019-01-26T20:35:11.624Z,6.40
2019-01-26T20:39:19.858Z,6.80
2019-01-26T20:43:28.073Z,7.60
2019-01-26T20:47:36.279Z,6.97
2019-01-26T20:51:44.516Z,7.40
2019-01-26T20:55:52.741Z,7.03
2019-01-26T21:00:00.953Z,6.70
2019-01-26T21:04:09.184Z,6.20
2019-01-26T21:08:17.395Z,6.87
2019-01-26T21:12:25.663Z,5.77
2019-01-26T21:16:33.842Z,6.50
2019-01-26T21:20:42.111Z,6.37
2019-01-26T21:24:50.364Z,6.37
2019-01-26T21:28:58.545Z,6.00
2019-01-26T21:33:06.761Z,5.80
2019-01-26T21:37:14.942Z,6.23
2019-01-26T21:41:23.172Z,5.23
2019-01-26T21:45:31.392Z,4.90
2019-01-26T21:49:39.603Z,6.57
2019-01-26T21:53:47.828Z,4.83
2019-01-26T21:57:56.110Z,5.23
2019-01-26T22:02:04.314Z,4.60
2019-01-26T22:06:12.509Z,5.20
2019-01-26T22:10:21.768Z,4.57
2019-01-26T22:14:30.007Z,5.17
2019-01-26T22:18:38.212Z,4.43
2019-01-26T22:22:47.106Z,4.20
2019-01-26T22:26:55.310Z,4.70
2019-01-26T22:31:03.529Z,4.30
2019-01-26T22:35:11.706Z,5.33
2019-01-26T22:39:19.918Z,4.80
2019-01-26T22:43:28.169Z,4.37
2019-01-26T22:47:36.389Z,4.50
2019-01-26T22:51:44.668Z,3.90
2019-01-26T22:55:52.933Z,3.80
2019-01-26T23:00:01.144Z,3.63
2019-01-26T23:04:50.510Z,3.90
2019-01-26T23:09:00.738Z,4.47
2019-01-26T23:15:26.562Z,3.80
2019-01-26T23:19:41.613Z,3.80
2019-01-26T23:24:57.598Z,3.97
2019-01-26T23:29:16.790Z,3.57
2019-01-26T23:33:25.009Z,3.40
2019-01-26T23:37:33.205Z,3.70
2019-01-26T23:41:41.412Z,3.50
2019-01-26T23:45:49.638Z,3.43
2019-01-26T23:49:57.884Z,2.90
2019-01-26T23:54:06.113Z,3.30
2019-01-26T23:58:14.326Z,3.00
